Time;durP1;ratioP1;P1;durP2;ratioP2;P2;SDS_P1;SDS_P2;PMS_P1;PMS_P2;Temp;Humidity;BMP_temperature;BMP_pressure;BME280_temperature;BME280_humidity;BME280_pressure;Samples;Min_cycle;Max_cycle;Signal;HPM_P1;HPM_P2
2022/12/24 00:00:33;;;;;;;98.18;67.55;;;7.20;99.90;;;;;;5052593;28;20032;-70
2022/12/24 00:02:59;;;;;;;98.03;66.85;;;7.20;99.90;;;;;;5052036;28;20017;-70
2022/12/24 00:05:25;;;;;;;96.30;65.30;;;7.20;99.90;;;;;;5052558;28;20029;-71
2022/12/24 00:07:51;;;;;;;99.90;66.53;;;7.20;99.90;;;;;;5052308;28;20081;-71
2022/12/24 00:10:17;;;;;;;100.60;68.38;;;7.20;99.90;;;;;;5052995;28;20136;-71
2022/12/24 00:12:42;;;;;;;99.28;72.93;;;7.30;99.90;;;;;;5055911;28;20110;-70
2022/12/24 00:15:09;;;;;;;104.50;75.95;;;7.30;99.90;;;;;;5056123;28;20411;-70
2022/12/24 00:17:35;;;;;;;117.57;85.05;;;7.40;99.90;;;;;;5049037;28;20105;-71
2022/12/24 00:20:00;;;;;;;140.38;100.18;;;7.40;99.90;;;;;;5052445;28;20025;-72
2022/12/24 00:22:26;;;;;;;175.00;116.25;;;7.50;99.90;;;;;;5055133;28;20041;-70
2022/12/24 00:24:52;;;;;;;213.75;147.90;;;7.50;99.90;;;;;;5055317;28;20480;-70
2022/12/24 00:27:18;;;;;;;243.30;162.60;;;7.50;99.90;;;;;;5050737;28;20029;-71
2022/12/24 00:29:44;;;;;;;242.68;160.68;;;7.50;99.90;;;;;;5029430;28;20033;-70
2022/12/24 00:32:09;;;;;;;254.95;165.30;;;7.50;99.90;;;;;;5051807;28;20092;-70
2022/12/24 00:34:36;;;;;;;266.15;180.55;;;7.60;99.90;;;;;;5037504;28;20562;-70
2022/12/24 00:37:03;;;;;;;254.95;169.25;;;7.60;99.90;;;;;;5055336;28;20041;-70
2022/12/24 00:39:28;;;;;;;249.50;168.48;;;7.60;99.90;;;;;;5055624;28;20024;-71
2022/12/24 00:41:54;;;;;;;251.55;162.40;;;7.60;99.90;;;;;;5055516;28;20534;-70
2022/12/24 00:44:20;;;;;;;239.52;155.30;;;7.60;99.90;;;;;;5047021;28;20018;-71
2022/12/24 00:46:46;;;;;;;229.00;148.60;;;7.60;99.90;;;;;;5053867;28;20036;-71
2022/12/24 00:49:12;;;;;;;211.75;143.88;;;7.60;99.90;;;;;;5055566;28;20025;-71
2022/12/24 00:51:38;;;;;;;206.40;135.70;;;7.70;99.90;;;;;;5041752;28;20029;-71
2022/12/24 00:54:05;;;;;;;202.40;135.73;;;7.70;99.90;;;;;;5055139;28;20115;-72
2022/12/24 00:56:31;;;;;;;180.68;120.43;;;7.80;99.90;;;;;;5055197;28;20075;-72
2022/12/24 00:58:57;;;;;;;169.57;110.15;;;7.80;99.90;;;;;;5046646;28;20473;-72
2022/12/24 01:01:24;;;;;;;156.73;104.05;;;7.80;99.90;;;;;;5043525;28;20036;-70
2022/12/24 01:03:50;;;;;;;137.35;89.75;;;7.90;99.90;;;;;;5047669;28;20115;-72
2022/12/24 01:06:19;;;;;;;138.52;88.45;;;7.90;99.90;;;;;;5042317;28;20025;-72
2022/12/24 01:08:45;;;;;;;129.50;83.68;;;8.00;99.90;;;;;;5055144;28;20174;-71
2022/12/24 01:11:12;;;;;;;136.80;87.00;;;8.10;99.90;;;;;;5040761;28;20013;-71
2022/12/24 01:13:38;;;;;;;142.68;91.40;;;8.10;99.90;;;;;;5043324;28;20531;-71
2022/12/24 01:16:14;;;;;;;130.70;89.97;;;8.20;99.90;;;;;;5045808;28;20465;-71
2022/12/24 01:18:40;;;;;;;129.88;89.85;;;8.20;99.90;;;;;;5042076;28;20108;-71
2022/12/24 01:21:06;;;;;;;141.38;92.55;;;8.20;99.90;;;;;;5051655;28;20123;-71
2022/12/24 01:23:31;;;;;;;147.65;99.82;;;8.20;99.90;;;;;;5053897;28;20534;-70
2022/12/24 01:26:03;;;;;;;141.88;95.85;;;8.10;99.90;;;;;;5054691;28;20020;-71
2022/12/24 01:28:30;;;;;;;147.40;103.28;;;8.10;99.90;;;;;;5023587;28;20029;-72
2022/12/24 01:30:55;;;;;;;141.68;94.85;;;8.10;99.90;;;;;;5054608;28;20461;-71
2022/12/24 01:33:21;;;;;;;134.38;89.25;;;8.10;99.90;;;;;;5040266;28;20045;-74
2022/12/24 01:35:47;;;;;;;133.27;89.60;;;8.20;99.90;;;;;;5046662;28;20476;-74
2022/12/24 01:38:13;;;;;;;150.77;100.47;;;8.10;99.90;;;;;;5049292;28;20100;-71
2022/12/24 01:43:27;;;;;;;147.93;101.93;;;8.10;99.90;;;;;;5040939;28;20468;-77
2022/12/24 01:45:57;;;;;;;155.93;104.45;;;8.10;99.90;;;;;;5051768;28;20017;-71
2022/12/24 01:48:38;;;;;;;165.23;106.05;;;8.10;99.90;;;;;;5036405;28;20039;-76
2022/12/24 01:51:21;;;;;;;137.85;92.25;;;7.90;99.90;;;;;;5053873;28;20527;-71
2022/12/24 01:53:49;;;;;;;102.57;72.80;;;7.80;99.90;;;;;;5043794;28;20045;-71
2022/12/24 01:56:16;;;;;;;108.00;72.22;;;7.80;99.90;;;;;;5053994;28;20021;-70
2022/12/24 01:58:47;;;;;;;101.28;65.28;;;7.90;99.90;;;;;;5054069;28;20044;-71
2022/12/24 02:01:13;;;;;;;126.60;89.53;;;7.90;99.90;;;;;;5053878;28;20071;-72
2022/12/24 02:03:39;;;;;;;184.63;123.55;;;7.90;99.90;;;;;;5054004;28;20461;-73
2022/12/24 02:06:06;;;;;;;177.95;120.95;;;7.80;99.90;;;;;;5040690;28;20361;-70
2022/12/24 02:08:38;;;;;;;186.55;126.35;;;7.80;99.90;;;;;;5043196;28;20076;-72
2022/12/24 02:11:12;;;;;;;180.30;116.80;;;7.80;99.90;;;;;;5051299;28;20021;-71
2022/12/24 02:13:38;;;;;;;160.75;109.53;;;7.80;99.90;;;;;;5042345;28;20033;-71
2022/12/24 02:16:36;;;;;;;158.60;114.28;;;7.80;99.90;;;;;;5043615;28;20027;-71
2022/12/24 02:19:33;;;;;;;155.50;104.85;;;7.80;99.90;;;;;;5044178;28;20037;-70
2022/12/24 02:22:20;;;;;;;134.07;95.22;;;7.90;99.90;;;;;;5053521;28;20603;-71
2022/12/24 02:25:03;;;;;;;104.22;68.32;;;7.70;99.90;;;;;;5053585;28;20044;-71
2022/12/24 02:27:36;;;;;;;113.65;75.80;;;7.70;99.90;;;;;;5053662;28;20032;-71
2022/12/24 02:30:11;;;;;;;95.90;63.28;;;7.70;99.90;;;;;;5051463;28;20052;-71
2022/12/24 02:32:53;;;;;;;83.90;59.90;;;7.70;99.90;;;;;;5044773;28;20029;-71
2022/12/24 02:35:22;;;;;;;61.88;42.00;;;7.70;99.90;;;;;;5053502;28;20025;-71
2022/12/24 02:37:54;;;;;;;59.58;39.78;;;7.70;99.90;;;;;;5053663;28;20060;-70
2022/12/24 02:40:27;;;;;;;54.13;39.42;;;7.70;99.90;;;;;;5053475;28;20485;-72
2022/12/24 02:42:58;;;;;;;56.50;37.83;;;7.60;99.90;;;;;;5053193;28;20025;-70
2022/12/24 02:45:30;;;;;;;56.22;38.60;;;7.70;99.90;;;;;;5045305;28;20469;-70
2022/12/24 02:47:57;;;;;;;71.10;46.83;;;7.60;99.90;;;;;;5050727;28;20029;-70
2022/12/24 02:50:23;;;;;;;66.10;44.50;;;7.60;99.90;;;;;;5053300;28;20060;-70
2022/12/24 02:52:50;;;;;;;67.68;45.00;;;7.60;99.90;;;;;;5053027;28;20029;-71
2022/12/24 02:55:34;;;;;;;62.95;41.78;;;7.70;99.90;;;;;;5053204;28;20508;-70
2022/12/24 02:58:27;;;;;;;60.38;41.47;;;7.60;99.90;;;;;;5053276;28;20469;-70
2022/12/24 03:01:15;;;;;;;65.30;42.83;;;7.70;99.90;;;;;;5053215;28;20100;-70
2022/12/24 03:03:56;;;;;;;57.20;42.83;;;7.70;99.90;;;;;;5052903;28;20514;-71
2022/12/24 03:06:30;;;;;;;56.03;44.28;;;7.60;99.90;;;;;;5052832;28;20041;-71
2022/12/24 03:09:05;;;;;;;57.10;39.97;;;7.60;99.90;;;;;;5050427;28;20371;-70
2022/12/24 03:11:32;;;;;;;59.25;38.88;;;7.60;99.90;;;;;;5053185;28;20063;-71
2022/12/24 03:13:59;;;;;;;58.70;39.25;;;7.60;99.90;;;;;;5053018;28;20032;-70
2022/12/24 03:16:27;;;;;;;65.55;42.05;;;7.70;99.90;;;;;;5053076;28;20361;-71
2022/12/24 03:18:56;;;;;;;59.35;42.90;;;7.70;99.90;;;;;;5052658;28;20025;-71
2022/12/24 03:21:28;;;;;;;60.95;42.42;;;7.70;99.90;;;;;;5052765;28;20055;-71
2022/12/24 03:23:55;;;;;;;57.72;41.83;;;7.80;99.90;;;;;;5052821;28;20032;-70
2022/12/24 03:26:22;;;;;;;53.50;41.72;;;7.90;99.90;;;;;;5042396;28;20464;-71
2022/12/24 03:28:48;;;;;;;62.63;42.15;;;7.90;99.90;;;;;;5050549;28;20032;-70
2022/12/24 03:31:15;;;;;;;56.70;41.13;;;8.00;99.90;;;;;;5052642;28;20021;-71
2022/12/24 03:33:41;;;;;;;60.38;42.20;;;7.90;99.90;;;;;;5052510;28;20511;-70
2022/12/24 03:36:08;;;;;;;68.22;46.28;;;7.90;99.90;;;;;;5052691;28;20522;-71
2022/12/24 03:38:34;;;;;;;63.20;44.95;;;7.90;99.90;;;;;;5052453;28;20021;-71
2022/12/24 03:41:00;;;;;;;63.67;45.22;;;7.90;99.90;;;;;;5052772;28;20017;-70
2022/12/24 03:43:26;;;;;;;64.70;45.75;;;8.00;99.90;;;;;;5052672;28;20064;-70
2022/12/24 03:45:52;;;;;;;74.90;46.70;;;8.00;99.90;;;;;;5054312;28;20056;-70
2022/12/24 03:48:18;;;;;;;66.07;45.45;;;8.10;99.90;;;;;;5056641;28;20540;-70
2022/12/24 03:50:44;;;;;;;61.63;45.10;;;8.10;99.90;;;;;;5056464;28;20021;-70
2022/12/24 03:53:09;;;;;;;72.70;45.60;;;8.10;99.90;;;;;;5051941;28;20041;-70
2022/12/24 03:55:36;;;;;;;67.45;44.67;;;8.10;99.90;;;;;;5047958;28;20024;-70
2022/12/24 03:58:02;;;;;;;64.57;44.15;;;8.10;99.90;;;;;;5056323;28;20079;-70
2022/12/24 04:00:28;;;;;;;76.82;48.30;;;8.10;99.90;;;;;;5056518;28;20014;-70
2022/12/24 04:02:53;;;;;;;63.28;44.17;;;8.10;99.90;;;;;;5051131;28;20427;-70
2022/12/24 04:05:20;;;;;;;70.05;42.42;;;8.20;99.90;;;;;;5055625;28;20172;-70
2022/12/24 04:07:46;;;;;;;62.33;41.35;;;8.10;99.90;;;;;;5053130;28;20027;-70
2022/12/24 04:10:15;;;;;;;54.80;37.70;;;8.10;99.90;;;;;;5056032;28;20025;-70
2022/12/24 04:12:41;;;;;;;45.15;33.33;;;8.10;99.90;;;;;;5046248;28;20056;-70
2022/12/24 04:15:08;;;;;;;48.75;31.67;;;8.10;99.90;;;;;;5055440;28;20112;-70
2022/12/24 04:17:34;;;;;;;44.92;28.60;;;8.20;99.90;;;;;;5046438;28;20017;-70
2022/12/24 04:20:00;;;;;;;48.25;28.65;;;8.10;99.90;;;;;;5053591;28;20392;-70
2022/12/24 04:22:25;;;;;;;44.45;29.13;;;8.20;99.90;;;;;;5047950;28;20174;-70
2022/12/24 04:24:51;;;;;;;43.97;28.13;;;8.20;99.90;;;;;;5055655;28;20037;-70
2022/12/24 04:27:17;;;;;;;43.53;27.13;;;8.20;99.90;;;;;;5041877;28;20171;-71
2022/12/24 04:29:43;;;;;;;40.70;25.02;;;8.20;99.90;;;;;;5049702;28;20028;-70
2022/12/24 04:32:09;;;;;;;38.25;24.65;;;8.20;99.90;;;;;;5049318;28;20021;-71
2022/12/24 04:34:35;;;;;;;41.45;25.58;;;8.30;99.90;;;;;;5047192;28;20100;-71
2022/12/24 04:37:02;;;;;;;43.22;26.45;;;8.30;99.90;;;;;;5055440;28;20250;-71
2022/12/24 04:39:27;;;;;;;39.78;26.52;;;8.30;99.90;;;;;;5055753;28;20028;-70
2022/12/24 04:41:53;;;;;;;46.65;29.52;;;8.40;99.90;;;;;;5042208;28;20051;-70
2022/12/24 04:44:19;;;;;;;44.28;30.52;;;8.40;99.90;;;;;;5054757;28;20021;-70
2022/12/24 04:46:45;;;;;;;48.33;28.17;;;8.40;99.90;;;;;;5047304;28;20025;-70
2022/12/24 04:49:11;;;;;;;50.33;24.48;;;8.40;99.90;;;;;;5055091;28;20048;-74
2022/12/24 04:51:37;;;;;;;34.75;22.85;;;8.40;99.90;;;;;;5055167;28;20025;-75
2022/12/24 04:54:02;;;;;;;33.47;20.05;;;8.40;99.90;;;;;;5049424;28;20034;-70
2022/12/24 04:56:30;;;;;;;34.63;18.73;;;8.40;99.90;;;;;;5044750;28;20473;-70
2022/12/24 04:58:58;;;;;;;29.38;19.75;;;8.40;99.90;;;;;;5042840;28;20033;-71
2022/12/24 05:01:26;;;;;;;28.40;16.58;;;8.40;99.90;;;;;;5045892;28;20063;-73
2022/12/24 05:03:52;;;;;;;40.03;24.02;;;8.40;99.90;;;;;;5044951;28;20381;-70
2022/12/24 05:06:23;;;;;;;41.08;23.15;;;8.40;99.90;;;;;;5043969;28;20033;-70
2022/12/24 05:08:52;;;;;;;43.22;25.65;;;8.50;99.90;;;;;;5044514;28;20354;-70
2022/12/24 05:11:18;;;;;;;40.22;23.58;;;8.50;99.90;;;;;;5044149;28;20456;-70
2022/12/24 05:13:44;;;;;;;34.83;19.70;;;8.50;99.90;;;;;;5045731;28;20036;-70
2022/12/24 05:16:11;;;;;;;30.63;19.88;;;8.50;99.90;;;;;;5044366;28;20017;-76
2022/12/24 05:18:37;;;;;;;28.13;17.38;;;8.60;99.90;;;;;;5048390;28;20036;-70
2022/12/24 05:21:12;;;;;;;31.17;18.38;;;8.60;99.90;;;;;;5050403;28;20079;-70
2022/12/24 05:26:27;;;;;;;38.60;20.77;;;8.70;99.90;;;;;;5044823;28;20033;-70
2022/12/24 05:28:55;;;;;;;33.95;23.00;;;8.80;99.90;;;;;;5045414;28;20031;-71
2022/12/24 05:31:23;;;;;;;35.45;21.73;;;8.80;99.90;;;;;;5044021;28;20029;-70
2022/12/24 05:33:49;;;;;;;39.00;23.00;;;8.80;99.90;;;;;;5048944;28;20037;-70
2022/12/24 05:36:16;;;;;;;35.22;21.30;;;8.80;99.90;;;;;;5046927;28;20021;-76
2022/12/24 05:38:42;;;;;;;30.85;20.20;;;8.80;99.90;;;;;;5048215;28;20025;-76
2022/12/24 05:41:09;;;;;;;35.38;20.77;;;8.90;99.90;;;;;;5043834;28;20476;-75
2022/12/24 05:43:36;;;;;;;30.85;22.17;;;8.90;99.90;;;;;;5045285;28;20041;-70
2022/12/24 05:46:08;;;;;;;39.72;25.55;;;8.90;99.90;;;;;;5043534;28;20030;-72
2022/12/24 05:48:34;;;;;;;44.55;30.23;;;8.90;99.90;;;;;;5053208;28;20047;-78
2022/12/24 05:51:06;;;;;;;48.38;32.03;;;8.90;99.90;;;;;;5045598;28;20026;-76
2022/12/24 05:53:33;;;;;;;54.92;36.05;;;8.90;99.90;;;;;;5041984;28;20388;-70
2022/12/24 05:56:10;;;;;;;63.70;39.40;;;8.80;99.90;;;;;;5053292;28;20022;-72
2022/12/24 05:58:37;;;;;;;48.45;31.67;;;8.80;99.90;;;;;;5048876;28;20423;-71
2022/12/24 06:01:04;;;;;;;47.70;29.60;;;8.80;99.90;;;;;;5053076;28;20452;-70
2022/12/24 06:03:30;;;;;;;42.80;28.30;;;8.80;99.90;;;;;;5054228;28;20033;-77
2022/12/24 06:06:07;;;;;;;40.92;28.10;;;8.80;99.90;;;;;;5053839;28;20074;-74
2022/12/24 06:08:34;;;;;;;31.17;22.00;;;8.80;99.90;;;;;;5053620;28;20039;-71
2022/12/24 06:11:03;;;;;;;30.98;20.60;;;8.80;99.90;;;;;;5053315;28;20469;-71
2022/12/24 06:13:30;;;;;;;29.05;19.38;;;8.90;99.90;;;;;;5052300;28;20040;-71
2022/12/24 06:15:59;;;;;;;43.50;30.65;;;8.90;99.90;;;;;;5053526;28;20025;-72
2022/12/24 06:18:25;;;;;;;55.97;37.08;;;8.90;99.90;;;;;;5052965;28;20040;-72
2022/12/24 06:20:52;;;;;;;54.78;37.55;;;8.80;99.90;;;;;;5049337;28;20112;-72
2022/12/24 06:23:19;;;;;;;54.30;40.53;;;8.80;99.90;;;;;;5053449;28;20021;-71
2022/12/24 06:25:45;;;;;;;49.42;35.70;;;8.70;99.90;;;;;;5046343;28;20022;-77
2022/12/24 06:28:11;;;;;;;46.28;33.78;;;8.70;99.90;;;;;;5047940;28;20469;-72
2022/12/24 06:30:37;;;;;;;48.80;33.92;;;8.70;99.90;;;;;;5053171;28;20021;-71
2022/12/24 06:33:03;;;;;;;51.45;37.33;;;8.70;99.90;;;;;;5039497;28;20095;-70
2022/12/24 06:35:30;;;;;;;52.13;37.05;;;8.70;99.90;;;;;;5052738;28;20028;-70
2022/12/24 06:37:56;;;;;;;73.13;50.72;;;8.70;99.90;;;;;;5053030;28;20381;-72
2022/12/24 06:40:22;;;;;;;73.75;51.80;;;8.60;99.90;;;;;;5035623;28;20104;-71
2022/12/24 06:42:48;;;;;;;61.75;43.15;;;8.60;99.90;;;;;;5051631;28;20095;-71
2022/12/24 06:45:14;;;;;;;51.92;35.33;;;8.60;99.90;;;;;;5046944;28;20031;-72
2022/12/24 06:47:39;;;;;;;51.13;35.88;;;8.60;99.90;;;;;;5052918;28;20055;-70
2022/12/24 06:50:06;;;;;;;50.90;35.78;;;8.60;99.90;;;;;;5053001;28;20035;-71
2022/12/24 06:52:31;;;;;;;51.80;35.30;;;8.70;99.90;;;;;;5045454;28;20112;-73
2022/12/24 06:54:57;;;;;;;48.75;35.47;;;8.70;99.90;;;;;;5053156;28;20117;-72
2022/12/24 06:57:23;;;;;;;48.30;32.53;;;8.80;99.90;;;;;;5052643;28;20079;-71
2022/12/24 06:59:49;;;;;;;46.47;34.88;;;8.80;99.90;;;;;;5052857;28;20050;-71
2022/12/24 07:02:14;;;;;;;47.03;33.30;;;8.80;99.90;;;;;;5052416;28;20021;-77
2022/12/24 07:04:40;;;;;;;42.60;30.92;;;8.80;99.90;;;;;;5052195;28;20066;-77
2022/12/24 07:07:06;;;;;;;56.40;35.42;;;8.80;99.90;;;;;;5053194;28;20461;-71
2022/12/24 07:09:32;;;;;;;53.35;36.90;;;8.90;99.90;;;;;;5053015;28;20025;-73
2022/12/24 07:11:58;;;;;;;56.35;38.05;;;8.90;99.90;;;;;;5051126;28;20033;-71
2022/12/24 07:14:23;;;;;;;73.53;52.70;;;8.90;99.90;;;;;;5049521;28;20112;-74
2022/12/24 07:16:49;;;;;;;66.45;45.10;;;8.90;99.90;;;;;;5045636;28;20107;-72
2022/12/24 07:19:15;;;;;;;68.18;48.38;;;8.80;99.90;;;;;;5040414;28;20478;-71
2022/12/24 07:21:41;;;;;;;66.03;47.60;;;8.90;99.90;;;;;;5020104;28;20038;-70
2022/12/24 07:24:07;;;;;;;66.50;43.70;;;8.90;99.90;;;;;;5032885;28;20473;-71
2022/12/24 07:26:33;;;;;;;56.00;39.22;;;8.70;99.90;;;;;;5032846;28;20036;-73
2022/12/24 07:28:59;;;;;;;50.97;35.22;;;8.70;99.90;;;;;;5019702;28;20018;-71
2022/12/24 07:31:25;;;;;;;52.45;36.42;;;8.70;99.90;;;;;;5032706;28;20084;-71
2022/12/24 07:33:50;;;;;;;55.63;40.33;;;8.80;99.90;;;;;;5032685;28;20455;-71
2022/12/24 07:36:19;;;;;;;58.72;43.10;;;8.60;99.90;;;;;;5033004;28;20033;-71
2022/12/24 07:38:45;;;;;;;55.35;43.75;;;8.70;99.90;;;;;;5032957;28;20021;-71
2022/12/24 07:41:11;;;;;;;65.88;48.85;;;8.70;99.90;;;;;;5032833;28;20483;-71
2022/12/24 07:43:37;;;;;;;97.45;63.28;;;8.80;99.90;;;;;;5032375;28;20021;-71
2022/12/24 07:46:03;;;;;;;97.68;68.63;;;8.80;99.90;;;;;;5029291;28;20480;-71
2022/12/24 07:48:30;;;;;;;77.45;55.97;;;8.90;99.90;;;;;;5032210;28;20138;-73
2022/12/24 07:50:56;;;;;;;68.80;50.78;;;8.90;99.90;;;;;;5024296;28;20504;-77
2022/12/24 07:53:23;;;;;;;62.63;48.30;;;8.90;99.90;;;;;;5023468;28;20049;-71
2022/12/24 07:55:49;;;;;;;71.70;54.83;;;9.00;99.90;;;;;;5023739;28;20034;-72
2022/12/24 07:58:15;;;;;;;84.63;63.20;;;9.00;99.90;;;;;;5026176;28;20022;-71
2022/12/24 08:00:41;;;;;;;89.10;65.78;;;9.10;99.90;;;;;;5024293;28;20033;-74
2022/12/24 08:03:19;;;;;;;98.35;75.53;;;9.10;99.90;;;;;;5032493;28;20029;-71
2022/12/24 08:05:45;;;;;;;93.05;71.30;;;9.20;99.90;;;;;;5024172;28;20030;-71
2022/12/24 08:08:11;;;;;;;98.55;71.15;;;9.20;99.90;;;;;;5021945;28;20021;-71
2022/12/24 08:10:39;;;;;;;95.22;69.10;;;9.30;99.90;;;;;;5023422;28;20163;-72
2022/12/24 08:13:05;;;;;;;109.20;83.43;;;9.40;99.90;;;;;;5021650;28;20571;-71
2022/12/24 08:15:31;;;;;;;112.43;80.57;;;9.40;99.90;;;;;;5021853;28;20053;-70
2022/12/24 08:17:56;;;;;;;87.07;63.60;;;9.60;99.90;;;;;;5023457;28;20056;-70
2022/12/24 08:20:22;;;;;;;89.78;63.47;;;9.50;99.90;;;;;;5021618;28;20022;-70
2022/12/24 08:22:48;;;;;;;90.78;62.13;;;9.60;99.90;;;;;;5041421;28;20455;-70
2022/12/24 08:25:14;;;;;;;96.55;63.72;;;9.70;99.90;;;;;;5042876;28;20022;-70
2022/12/24 08:27:40;;;;;;;100.13;73.63;;;9.80;99.90;;;;;;5040909;28;20025;-72
2022/12/24 08:30:07;;;;;;;104.22;75.13;;;9.70;99.90;;;;;;5041913;28;20067;-71
2022/12/24 08:32:33;;;;;;;95.75;71.20;;;9.80;99.90;;;;;;5044826;28;20033;-71
2022/12/24 08:34:59;;;;;;;91.30;71.45;;;9.90;99.90;;;;;;5044422;28;20461;-70
2022/12/24 08:37:24;;;;;;;97.40;72.07;;;10.00;99.90;;;;;;5045718;28;20107;-71
2022/12/24 08:39:50;;;;;;;103.22;75.22;;;10.10;99.90;;;;;;5045799;28;20037;-71
2022/12/24 08:42:16;;;;;;;102.80;74.50;;;10.20;99.90;;;;;;5044053;28;20033;-70
2022/12/24 08:44:42;;;;;;;108.53;75.70;;;10.30;99.90;;;;;;5046012;28;20021;-70
2022/12/24 08:47:08;;;;;;;93.38;75.60;;;10.40;99.90;;;;;;5044953;28;20469;-69
2022/12/24 08:49:33;;;;;;;118.25;82.80;;;10.50;99.90;;;;;;5044406;28;20032;-70
2022/12/24 08:51:59;;;;;;;132.07;93.70;;;10.60;99.90;;;;;;5046136;28;20017;-71
2022/12/24 08:54:25;;;;;;;130.88;92.25;;;10.70;99.90;;;;;;5044639;28;20500;-71
2022/12/24 08:56:51;;;;;;;116.95;85.20;;;10.70;99.90;;;;;;5044623;28;20104;-72
2022/12/24 08:59:17;;;;;;;117.05;82.78;;;10.80;99.90;;;;;;5045741;28;20021;-72
2022/12/24 09:01:43;;;;;;;137.68;93.95;;;10.80;99.90;;;;;;5048038;28;20060;-71
2022/12/24 09:04:08;;;;;;;155.55;106.93;;;10.80;99.90;;;;;;5047553;28;20024;-74
2022/12/24 09:06:34;;;;;;;193.05;131.27;;;10.80;99.90;;;;;;5044083;28;20029;-69
2022/12/24 09:09:02;;;;;;;206.95;145.82;;;10.90;99.90;;;;;;5046892;28;20550;-68
2022/12/24 09:11:28;;;;;;;205.02;145.35;;;10.90;99.90;;;;;;5055319;28;20075;-71
2022/12/24 09:13:54;;;;;;;184.32;137.65;;;10.90;99.90;;;;;;5054872;28;20032;-70
2022/12/24 09:16:20;;;;;;;174.85;132.48;;;10.80;99.90;;;;;;5048732;28;20021;-70
2022/12/24 09:18:45;;;;;;;167.02;128.05;;;10.90;99.90;;;;;;5043665;28;20032;-69
2022/12/24 09:21:14;;;;;;;147.50;113.57;;;10.90;99.90;;;;;;5051388;28;20056;-69
2022/12/24 09:23:42;;;;;;;144.23;107.47;;;10.90;99.90;;;;;;5054238;28;20057;-70
2022/12/24 09:26:12;;;;;;;147.05;109.07;;;10.90;99.90;;;;;;5054712;28;20024;-72
2022/12/24 09:28:38;;;;;;;148.27;110.78;;;11.00;99.90;;;;;;5053911;28;20032;-69
2022/12/24 09:31:05;;;;;;;139.73;108.55;;;11.10;99.90;;;;;;5053682;28;20028;-70
2022/12/24 09:33:33;;;;;;;133.30;105.78;;;11.10;99.90;;;;;;5054401;28;20392;-69
2022/12/24 09:36:00;;;;;;;130.07;99.63;;;11.20;99.90;;;;;;5054273;28;20017;-69
2022/12/24 09:38:27;;;;;;;108.72;81.00;;;11.20;99.90;;;;;;5054218;28;20036;-69
2022/12/24 09:40:54;;;;;;;98.20;70.97;;;11.20;99.90;;;;;;5051811;28;20062;-71
2022/12/24 09:43:23;;;;;;;96.13;74.95;;;11.20;99.90;;;;;;5041641;28;20017;-70
2022/12/24 09:46:21;;;;;;;93.43;74.75;;;11.20;99.90;;;;;;5041581;28;20028;-70
2022/12/24 09:48:52;;;;;;;101.30;74.45;;;11.20;99.90;;;;;;5060015;28;20071;-71
2022/12/24 09:51:40;;;;;;;102.20;71.05;;;11.20;99.90;;;;;;5052797;28;20104;-76
2022/12/24 09:54:19;;;;;;;93.97;70.00;;;11.20;99.90;;;;;;5052016;28;20090;-69
2022/12/24 09:56:47;;;;;;;89.28;65.68;;;11.30;99.90;;;;;;5054046;28;20495;-70
2022/12/24 09:59:16;;;;;;;82.55;59.53;;;11.30;99.90;;;;;;5052225;28;20547;-70
2022/12/24 10:01:42;;;;;;;78.28;59.63;;;11.40;99.90;;;;;;5035123;28;20029;-74
2022/12/24 10:04:13;;;;;;;83.40;65.47;;;11.40;99.90;;;;;;5053799;28;20366;-71
2022/12/24 10:07:03;;;;;;;69.28;52.17;;;11.40;99.90;;;;;;5053032;28;20032;-72
2022/12/24 10:09:47;;;;;;;72.28;54.08;;;11.40;99.90;;;;;;5049215;28;20376;-71
2022/12/24 10:12:21;;;;;;;70.13;53.95;;;11.40;99.90;;;;;;5050290;28;20029;-70
2022/12/24 10:14:49;;;;;;;67.07;51.72;;;11.50;99.90;;;;;;5052072;28;20033;-70
2022/12/24 10:17:39;;;;;;;72.32;54.50;;;11.50;99.90;;;;;;5050769;28;20041;-70
2022/12/24 10:20:23;;;;;;;73.03;52.35;;;11.30;99.90;;;;;;5041459;28;20515;-70
2022/12/24 10:23:11;;;;;;;67.03;49.30;;;11.40;99.90;;;;;;5045202;28;20067;-73
2022/12/24 10:26:05;;;;;;;67.13;50.20;;;11.30;99.90;;;;;;5052362;28;20033;-69
2022/12/24 10:28:40;;;;;;;66.63;48.17;;;11.40;99.90;;;;;;5042541;28;20032;-70
2022/12/24 10:31:07;;;;;;;62.30;49.78;;;11.40;99.90;;;;;;5053590;28;20481;-69
2022/12/24 10:34:00;;;;;;;68.78;52.50;;;11.50;99.90;;;;;;5053338;28;20034;-71
2022/12/24 10:36:30;;;;;;;72.68;55.60;;;11.50;99.90;;;;;;5040580;28;20040;-71
2022/12/24 10:38:57;;;;;;;83.30;58.85;;;11.50;99.90;;;;;;5042654;28;20025;-70
2022/12/24 10:41:26;;;;;;;82.78;59.85;;;11.60;99.90;;;;;;5049684;28;20400;-70
2022/12/24 10:43:53;;;;;;;80.22;59.90;;;11.60;99.90;;;;;;5052345;28;20094;-76
2022/12/24 10:46:21;;;;;;;83.82;62.83;;;11.60;99.90;;;;;;5051309;28;20412;-70
2022/12/24 10:48:52;;;;;;;90.45;67.97;;;11.70;99.90;;;;;;5049922;28;20029;-69
2022/12/24 10:51:40;;;;;;;119.22;87.15;;;11.70;99.90;;;;;;5053357;28;20353;-72
2022/12/24 10:54:15;;;;;;;87.65;64.10;;;11.60;99.90;;;;;;5053236;28;20040;-70
2022/12/24 10:56:45;;;;;;;91.78;64.25;;;11.50;99.90;;;;;;5053020;28;20017;-74
2022/12/24 10:59:33;;;;;;;83.22;58.53;;;11.50;99.90;;;;;;5053211;28;20063;-69
2022/12/24 11:02:00;;;;;;;93.20;65.68;;;11.40;99.90;;;;;;4950710;29;20519;-70
2022/12/24 11:04:36;;;;;;;92.75;67.75;;;11.40;99.90;;;;;;4951963;29;20035;-75
2022/12/24 11:07:05;;;;;;;94.00;69.18;;;11.50;99.90;;;;;;4943642;29;20035;-71
2022/12/24 11:09:38;;;;;;;70.00;53.72;;;11.50;99.90;;;;;;4953075;29;20035;-71
2022/12/24 11:12:15;;;;;;;110.63;69.32;;;11.40;99.90;;;;;;4951836;28;20031;-70
2022/12/24 11:14:41;;;;;;;261.38;157.00;;;11.40;99.90;;;;;;4951945;29;20050;-74
2022/12/24 11:17:19;;;;;;;210.15;129.23;;;11.40;99.90;;;;;;4953034;29;20027;-69
2022/12/24 11:19:48;;;;;;;119.07;78.85;;;11.40;99.90;;;;;;4952798;29;20054;-71
2022/12/24 11:22:18;;;;;;;115.65;80.45;;;11.30;99.90;;;;;;4949453;28;20055;-70
2022/12/24 11:24:44;;;;;;;101.55;75.70;;;11.30;99.90;;;;;;4952953;28;20034;-70
2022/12/24 11:27:37;;;;;;;101.47;78.10;;;11.30;99.90;;;;;;4952910;28;20098;-70
2022/12/24 11:30:18;;;;;;;102.53;75.97;;;11.30;99.90;;;;;;4952345;28;20051;-70
2022/12/24 11:32:47;;;;;;;103.30;75.45;;;11.20;99.90;;;;;;4951030;28;20035;-75
2022/12/24 11:35:20;;;;;;;91.35;66.60;;;11.20;99.90;;;;;;4951987;28;20499;-74
2022/12/24 11:37:58;;;;;;;89.38;69.00;;;11.20;99.90;;;;;;4952088;28;20585;-72
2022/12/24 11:40:27;;;;;;;96.78;72.80;;;11.20;99.90;;;;;;5032854;28;20030;-70
2022/12/24 11:42:59;;;;;;;100.95;76.22;;;11.30;99.90;;;;;;5030664;28;20010;-70
2022/12/24 11:45:30;;;;;;;109.18;81.72;;;11.40;99.90;;;;;;5032548;28;20034;-70
2022/12/24 11:47:56;;;;;;;104.97;72.45;;;11.30;99.90;;;;;;5018747;28;20466;-74
2022/12/24 11:50:34;;;;;;;89.03;63.53;;;11.40;99.90;;;;;;5022214;28;20079;-70
2022/12/24 11:53:02;;;;;;;72.18;54.80;;;11.40;99.90;;;;;;5030506;28;20037;-70
2022/12/24 11:55:50;;;;;;;69.63;52.85;;;11.50;99.90;;;;;;5031327;28;20056;-71
2022/12/24 11:58:42;;;;;;;68.50;52.08;;;11.50;99.90;;;;;;5032106;28;20115;-75
2022/12/24 12:01:20;;;;;;;58.97;45.83;;;11.50;99.90;;;;;;5032414;28;20034;-70
2022/12/24 12:04:11;;;;;;;55.83;42.80;;;11.50;99.90;;;;;;5020835;28;20428;-75
2022/12/24 12:06:57;;;;;;;48.95;38.60;;;11.50;99.90;;;;;;5031614;28;20025;-70
2022/12/24 12:09:28;;;;;;;60.63;44.15;;;11.60;99.90;;;;;;5028443;28;20026;-73
2022/12/24 12:12:20;;;;;;;56.53;42.78;;;11.60;99.90;;;;;;5035456;28;20036;-71
2022/12/24 12:14:54;;;;;;;51.45;38.83;;;11.60;99.90;;;;;;5022194;28;20500;-68
2022/12/24 12:17:43;;;;;;;50.20;37.60;;;11.50;99.90;;;;;;5024798;28;20030;-71
2022/12/24 12:20:11;;;;;;;67.10;46.03;;;11.50;99.90;;;;;;5035165;28;20029;-70
2022/12/24 12:22:55;;;;;;;73.55;56.08;;;11.60;99.90;;;;;;5050847;28;20052;-70
2022/12/24 12:25:29;;;;;;;68.95;54.03;;;11.60;99.90;;;;;;5024567;28;20025;-70
2022/12/24 12:27:57;;;;;;;73.70;57.20;;;11.50;99.90;;;;;;5055235;28;20028;-70
2022/12/24 12:30:24;;;;;;;81.68;63.53;;;11.50;99.90;;;;;;5055703;28;20033;-72
2022/12/24 12:32:59;;;;;;;68.05;51.03;;;11.50;99.90;;;;;;5055557;28;20090;-70
2022/12/24 12:35:34;;;;;;;65.20;47.85;;;11.50;99.90;;;;;;5038075;28;20124;-70
2022/12/24 12:38:10;;;;;;;61.80;43.72;;;11.50;99.90;;;;;;5046935;28;20033;-71
2022/12/24 12:40:45;;;;;;;56.42;43.47;;;11.50;99.90;;;;;;5052877;28;20109;-71
2022/12/24 12:43:30;;;;;;;44.15;32.95;;;11.50;99.90;;;;;;5055684;28;20021;-69
2022/12/24 12:46:11;;;;;;;40.08;28.38;;;11.50;99.90;;;;;;5055561;28;20057;-70